sensor_id;sensor_type;location;lat;lon;timestamp;P1;durP1;ratioP1;P2;durP2;ratioP2
46322;SDS011;32044;52.386;13.278;2023-11-18T00:01:50;14.00;;;9.20;;
46322;SDS011;32044;52.386;13.278;2023-11-18T00:04:18;12.93;;;9.13;;
46322;SDS011;32044;52.386;13.278;2023-11-18T00:06:47;13.98;;;9.30;;
46322;SDS011;32044;52.386;13.278;2023-11-18T00:09:14;12.63;;;9.68;;
46322;SDS011;32044;52.386;13.278;2023-11-18T00:11:44;13.52;;;9.75;;
46322;SDS011;32044;52.386;13.278;2023-11-18T00:14:12;15.25;;;9.70;;
46322;SDS011;32044;52.386;13.278;2023-11-18T00:16:40;12.55;;;9.50;;
46322;SDS011;32044;52.386;13.278;2023-11-18T00:19:09;14.50;;;10.98;;
46322;SDS011;32044;52.386;13.278;2023-11-18T00:21:37;14.13;;;10.27;;
46322;SDS011;32044;52.386;13.278;2023-11-18T00:24:06;14.98;;;10.25;;
46322;SDS011;32044;52.386;13.278;2023-11-18T00:26:36;13.93;;;10.48;;
46322;SDS011;32044;52.386;13.278;2023-11-18T00:29:08;15.75;;;11.50;;
46322;SDS011;32044;52.386;13.278;2023-11-18T00:31:35;15.10;;;10.07;;
46322;SDS011;32044;52.386;13.278;2023-11-18T00:34:03;16.83;;;10.95;;
46322;SDS011;32044;52.386;13.278;2023-11-18T00:36:32;14.07;;;10.65;;
46322;SDS011;32044;52.386;13.278;2023-11-18T00:39:00;14.73;;;10.60;;
46322;SDS011;32044;52.386;13.278;2023-11-18T00:41:30;14.35;;;10.20;;
46322;SDS011;32044;52.386;13.278;2023-11-18T00:43:58;15.50;;;9.75;;
46322;SDS011;32044;52.386;13.278;2023-11-18T00:46:28;15.77;;;10.45;;
46322;SDS011;32044;52.386;13.278;2023-11-18T00:48:57;15.05;;;10.27;;
46322;SDS011;32044;52.386;13.278;2023-11-18T00:51:25;14.75;;;10.20;;
46322;SDS011;32044;52.386;13.278;2023-11-18T00:53:53;14.27;;;10.30;;
46322;SDS011;32044;52.386;13.278;2023-11-18T00:56:21;14.13;;;10.27;;
46322;SDS011;32044;52.386;13.278;2023-11-18T00:58:49;15.20;;;10.60;;
46322;SDS011;32044;52.386;13.278;2023-11-18T01:01:19;15.43;;;11.05;;
46322;SDS011;32044;52.386;13.278;2023-11-18T01:03:51;15.13;;;10.40;;
46322;SDS011;32044;52.386;13.278;2023-11-18T01:06:20;14.63;;;10.23;;
46322;SDS011;32044;52.386;13.278;2023-11-18T01:08:49;14.73;;;9.57;;
46322;SDS011;32044;52.386;13.278;2023-11-18T01:11:18;15.88;;;11.05;;
46322;SDS011;32044;52.386;13.278;2023-11-18T01:13:46;16.45;;;10.55;;
46322;SDS011;32044;52.386;13.278;2023-11-18T01:16:15;16.30;;;10.68;;
46322;SDS011;32044;52.386;13.278;2023-11-18T01:18:43;25.77;;;11.85;;
46322;SDS011;32044;52.386;13.278;2023-11-18T01:21:13;16.58;;;10.73;;
46322;SDS011;32044;52.386;13.278;2023-11-18T01:23:43;16.70;;;11.07;;
46322;SDS011;32044;52.386;13.278;2023-11-18T01:26:12;17.70;;;10.63;;
46322;SDS011;32044;52.386;13.278;2023-11-18T01:28:41;14.90;;;10.18;;
46322;SDS011;32044;52.386;13.278;2023-11-18T01:31:11;16.48;;;10.60;;
46322;SDS011;32044;52.386;13.278;2023-11-18T01:33:40;14.48;;;10.15;;
46322;SDS011;32044;52.386;13.278;2023-11-18T01:36:09;14.95;;;11.18;;
46322;SDS011;32044;52.386;13.278;2023-11-18T01:38:40;15.35;;;10.82;;
46322;SDS011;32044;52.386;13.278;2023-11-18T01:41:07;16.48;;;10.57;;
46322;SDS011;32044;52.386;13.278;2023-11-18T01:43:36;16.10;;;11.18;;
46322;SDS011;32044;52.386;13.278;2023-11-18T01:46:07;18.08;;;11.38;;
46322;SDS011;32044;52.386;13.278;2023-11-18T01:48:37;14.80;;;10.55;;
46322;SDS011;32044;52.386;13.278;2023-11-18T01:51:05;20.55;;;11.65;;
46322;SDS011;32044;52.386;13.278;2023-11-18T01:53:34;15.85;;;11.10;;
46322;SDS011;32044;52.386;13.278;2023-11-18T01:56:07;16.83;;;11.98;;
46322;SDS011;32044;52.386;13.278;2023-11-18T01:58:37;19.63;;;12.95;;
46322;SDS011;32044;52.386;13.278;2023-11-18T02:01:07;16.08;;;11.20;;
46322;SDS011;32044;52.386;13.278;2023-11-18T02:03:38;19.90;;;12.50;;
46322;SDS011;32044;52.386;13.278;2023-11-18T02:06:12;17.63;;;11.65;;
46322;SDS011;32044;52.386;13.278;2023-11-18T02:08:43;17.98;;;12.20;;
46322;SDS011;32044;52.386;13.278;2023-11-18T02:11:16;18.38;;;12.48;;
46322;SDS011;32044;52.386;13.278;2023-11-18T02:13:48;15.65;;;11.68;;
46322;SDS011;32044;52.386;13.278;2023-11-18T02:16:19;21.60;;;12.38;;
46322;SDS011;32044;52.386;13.278;2023-11-18T02:18:47;17.73;;;11.55;;
46322;SDS011;32044;52.386;13.278;2023-11-18T02:21:18;14.65;;;8.23;;
46322;SDS011;32044;52.386;13.278;2023-11-18T02:23:47;16.25;;;11.50;;
46322;SDS011;32044;52.386;13.278;2023-11-18T02:26:21;19.20;;;11.75;;
46322;SDS011;32044;52.386;13.278;2023-11-18T02:28:49;17.67;;;11.70;;
46322;SDS011;32044;52.386;13.278;2023-11-18T02:31:20;15.82;;;11.43;;
46322;SDS011;32044;52.386;13.278;2023-11-18T02:33:53;15.90;;;11.38;;
46322;SDS011;32044;52.386;13.278;2023-11-18T02:36:25;18.55;;;10.90;;
46322;SDS011;32044;52.386;13.278;2023-11-18T02:39:03;17.00;;;11.43;;
46322;SDS011;32044;52.386;13.278;2023-11-18T02:41:36;18.45;;;10.82;;
46322;SDS011;32044;52.386;13.278;2023-11-18T02:44:05;15.88;;;11.38;;
46322;SDS011;32044;52.386;13.278;2023-11-18T02:46:36;17.75;;;11.30;;
46322;SDS011;32044;52.386;13.278;2023-11-18T02:49:05;20.00;;;12.40;;
46322;SDS011;32044;52.386;13.278;2023-11-18T02:51:35;20.58;;;12.18;;
46322;SDS011;32044;52.386;13.278;2023-11-18T02:54:06;15.45;;;10.93;;
46322;SDS011;32044;52.386;13.278;2023-11-18T02:56:39;17.75;;;11.18;;
46322;SDS011;32044;52.386;13.278;2023-11-18T02:59:09;16.92;;;11.10;;
46322;SDS011;32044;52.386;13.278;2023-11-18T03:01:37;20.58;;;12.45;;
46322;SDS011;32044;52.386;13.278;2023-11-18T03:04:06;18.58;;;12.15;;
46322;SDS011;32044;52.386;13.278;2023-11-18T03:06:35;18.85;;;12.02;;
46322;SDS011;32044;52.386;13.278;2023-11-18T03:09:04;16.50;;;11.60;;
46322;SDS011;32044;52.386;13.278;2023-11-18T03:11:33;18.75;;;11.77;;
46322;SDS011;32044;52.386;13.278;2023-11-18T03:14:03;16.13;;;11.48;;
46322;SDS011;32044;52.386;13.278;2023-11-18T03:16:36;18.63;;;11.65;;
46322;SDS011;32044;52.386;13.278;2023-11-18T03:19:04;15.40;;;10.93;;
46322;SDS011;32044;52.386;13.278;2023-11-18T03:21:33;20.15;;;11.65;;
46322;SDS011;32044;52.386;13.278;2023-11-18T03:24:01;14.23;;;10.65;;
46322;SDS011;32044;52.386;13.278;2023-11-18T03:26:30;16.25;;;11.00;;
46322;SDS011;32044;52.386;13.278;2023-11-18T03:28:58;16.88;;;11.15;;
46322;SDS011;32044;52.386;13.278;2023-11-18T03:31:28;14.75;;;10.27;;
46322;SDS011;32044;52.386;13.278;2023-11-18T03:33:59;15.52;;;10.32;;
46322;SDS011;32044;52.386;13.278;2023-11-18T03:36:30;17.85;;;10.75;;
46322;SDS011;32044;52.386;13.278;2023-11-18T03:38:58;13.98;;;10.55;;
46322;SDS011;32044;52.386;13.278;2023-11-18T03:41:28;20.48;;;11.13;;
46322;SDS011;32044;52.386;13.278;2023-11-18T03:43:56;16.40;;;10.55;;
46322;SDS011;32044;52.386;13.278;2023-11-18T03:46:25;14.93;;;10.25;;
46322;SDS011;32044;52.386;13.278;2023-11-18T03:48:57;15.45;;;10.30;;
46322;SDS011;32044;52.386;13.278;2023-11-18T03:51:26;18.50;;;11.00;;
46322;SDS011;32044;52.386;13.278;2023-11-18T03:53:53;15.18;;;10.93;;
46322;SDS011;32044;52.386;13.278;2023-11-18T03:56:21;16.63;;;10.77;;
46322;SDS011;32044;52.386;13.278;2023-11-18T03:58:49;20.02;;;11.77;;
46322;SDS011;32044;52.386;13.278;2023-11-18T04:01:19;20.45;;;11.65;;
46322;SDS011;32044;52.386;13.278;2023-11-18T04:03:47;16.58;;;11.52;;
46322;SDS011;32044;52.386;13.278;2023-11-18T04:06:17;15.55;;;11.13;;
46322;SDS011;32044;52.386;13.278;2023-11-18T04:08:45;18.33;;;11.75;;
46322;SDS011;32044;52.386;13.278;2023-11-18T04:11:13;20.10;;;12.07;;
46322;SDS011;32044;52.386;13.278;2023-11-18T04:13:43;18.77;;;11.27;;
46322;SDS011;32044;52.386;13.278;2023-11-18T04:16:13;16.83;;;11.10;;
46322;SDS011;32044;52.386;13.278;2023-11-18T04:21:12;18.70;;;11.20;;
46322;SDS011;32044;52.386;13.278;2023-11-18T04:23:42;20.63;;;11.10;;
46322;SDS011;32044;52.386;13.278;2023-11-18T04:26:13;19.38;;;12.15;;
46322;SDS011;32044;52.386;13.278;2023-11-18T04:28:41;19.02;;;11.98;;
46322;SDS011;32044;52.386;13.278;2023-11-18T04:31:11;21.45;;;12.93;;
46322;SDS011;32044;52.386;13.278;2023-11-18T04:33:40;26.98;;;13.38;;
46322;SDS011;32044;52.386;13.278;2023-11-18T04:36:10;20.45;;;12.95;;
46322;SDS011;32044;52.386;13.278;2023-11-18T04:38:40;21.92;;;13.10;;
46322;SDS011;32044;52.386;13.278;2023-11-18T04:41:10;21.17;;;12.82;;
46322;SDS011;32044;52.386;13.278;2023-11-18T04:43:38;23.80;;;12.68;;
46322;SDS011;32044;52.386;13.278;2023-11-18T04:46:11;21.75;;;13.25;;
46322;SDS011;32044;52.386;13.278;2023-11-18T04:48:39;22.77;;;12.93;;
46322;SDS011;32044;52.386;13.278;2023-11-18T04:51:08;22.88;;;14.00;;
46322;SDS011;32044;52.386;13.278;2023-11-18T04:53:36;22.13;;;13.82;;
46322;SDS011;32044;52.386;13.278;2023-11-18T04:56:09;22.48;;;12.85;;
46322;SDS011;32044;52.386;13.278;2023-11-18T04:58:37;24.08;;;14.27;;
46322;SDS011;32044;52.386;13.278;2023-11-18T05:01:06;24.23;;;13.10;;
46322;SDS011;32044;52.386;13.278;2023-11-18T05:03:35;19.67;;;12.55;;
46322;SDS011;32044;52.386;13.278;2023-11-18T05:06:04;20.83;;;13.20;;
46322;SDS011;32044;52.386;13.278;2023-11-18T05:08:34;20.13;;;12.65;;
46322;SDS011;32044;52.386;13.278;2023-11-18T05:11:03;22.15;;;12.80;;
46322;SDS011;32044;52.386;13.278;2023-11-18T05:13:33;19.65;;;11.70;;
46322;SDS011;32044;52.386;13.278;2023-11-18T05:16:01;19.77;;;12.35;;
46322;SDS011;32044;52.386;13.278;2023-11-18T05:18:30;20.80;;;12.13;;
46322;SDS011;32044;52.386;13.278;2023-11-18T05:21:03;17.98;;;11.48;;
46322;SDS011;32044;52.386;13.278;2023-11-18T05:23:34;20.45;;;12.15;;
46322;SDS011;32044;52.386;13.278;2023-11-18T05:26:03;16.95;;;11.38;;
46322;SDS011;32044;52.386;13.278;2023-11-18T05:28:34;19.92;;;11.60;;
46322;SDS011;32044;52.386;13.278;2023-11-18T05:31:03;18.20;;;11.35;;
46322;SDS011;32044;52.386;13.278;2023-11-18T05:33:33;16.10;;;10.82;;
46322;SDS011;32044;52.386;13.278;2023-11-18T05:36:02;18.15;;;10.55;;
46322;SDS011;32044;52.386;13.278;2023-11-18T05:38:32;16.17;;;10.57;;
46322;SDS011;32044;52.386;13.278;2023-11-18T05:41:01;19.15;;;11.43;;
46322;SDS011;32044;52.386;13.278;2023-11-18T05:43:31;17.70;;;11.25;;
46322;SDS011;32044;52.386;13.278;2023-11-18T05:46:09;22.00;;;11.48;;
46322;SDS011;32044;52.386;13.278;2023-11-18T05:48:47;19.23;;;11.15;;
46322;SDS011;32044;52.386;13.278;2023-11-18T05:51:18;16.95;;;10.68;;
46322;SDS011;32044;52.386;13.278;2023-11-18T05:53:47;19.13;;;11.30;;
46322;SDS011;32044;52.386;13.278;2023-11-18T05:56:20;19.52;;;11.27;;
46322;SDS011;32044;52.386;13.278;2023-11-18T05:58:50;16.70;;;10.60;;
46322;SDS011;32044;52.386;13.278;2023-11-18T06:01:24;16.60;;;11.32;;
46322;SDS011;32044;52.386;13.278;2023-11-18T06:03:53;17.58;;;11.18;;
46322;SDS011;32044;52.386;13.278;2023-11-18T06:06:23;20.13;;;11.45;;
46322;SDS011;32044;52.386;13.278;2023-11-18T06:08:51;21.02;;;11.18;;
46322;SDS011;32044;52.386;13.278;2023-11-18T06:11:20;15.25;;;9.60;;
46322;SDS011;32044;52.386;13.278;2023-11-18T06:13:50;17.77;;;11.07;;
46322;SDS011;32044;52.386;13.278;2023-11-18T06:16:24;17.05;;;10.63;;
46322;SDS011;32044;52.386;13.278;2023-11-18T06:18:53;18.90;;;12.10;;
46322;SDS011;32044;52.386;13.278;2023-11-18T06:21:23;16.45;;;10.93;;
46322;SDS011;32044;52.386;13.278;2023-11-18T06:23:55;18.55;;;11.15;;
46322;SDS011;32044;52.386;13.278;2023-11-18T06:26:26;18.93;;;11.93;;
46322;SDS011;32044;52.386;13.278;2023-11-18T06:28:55;16.77;;;10.70;;
46322;SDS011;32044;52.386;13.278;2023-11-18T06:31:25;16.10;;;10.75;;
46322;SDS011;32044;52.386;13.278;2023-11-18T06:33:53;19.77;;;11.38;;
46322;SDS011;32044;52.386;13.278;2023-11-18T06:36:22;17.35;;;11.07;;
46322;SDS011;32044;52.386;13.278;2023-11-18T06:38:53;18.07;;;10.93;;
46322;SDS011;32044;52.386;13.278;2023-11-18T06:41:22;17.67;;;11.30;;
46322;SDS011;32044;52.386;13.278;2023-11-18T06:43:53;17.27;;;11.20;;
46322;SDS011;32044;52.386;13.278;2023-11-18T06:46:29;17.55;;;10.57;;
46322;SDS011;32044;52.386;13.278;2023-11-18T06:49:01;16.13;;;10.95;;
46322;SDS011;32044;52.386;13.278;2023-11-18T06:51:32;18.85;;;11.02;;
46322;SDS011;32044;52.386;13.278;2023-11-18T06:54:02;18.40;;;11.48;;
46322;SDS011;32044;52.386;13.278;2023-11-18T06:56:37;17.52;;;11.43;;
46322;SDS011;32044;52.386;13.278;2023-11-18T06:59:05;22.02;;;11.57;;
46322;SDS011;32044;52.386;13.278;2023-11-18T07:01:36;20.45;;;12.30;;
46322;SDS011;32044;52.386;13.278;2023-11-18T07:04:04;18.55;;;10.90;;
46322;SDS011;32044;52.386;13.278;2023-11-18T07:06:35;23.77;;;12.40;;
46322;SDS011;32044;52.386;13.278;2023-11-18T07:09:05;19.27;;;11.60;;
46322;SDS011;32044;52.386;13.278;2023-11-18T07:11:41;18.33;;;12.02;;
46322;SDS011;32044;52.386;13.278;2023-11-18T07:14:09;21.77;;;12.57;;
46322;SDS011;32044;52.386;13.278;2023-11-18T07:16:40;23.92;;;12.18;;
46322;SDS011;32044;52.386;13.278;2023-11-18T07:19:08;21.10;;;13.25;;
46322;SDS011;32044;52.386;13.278;2023-11-18T07:21:41;21.30;;;13.05;;
46322;SDS011;32044;52.386;13.278;2023-11-18T07:24:09;22.98;;;12.68;;
46322;SDS011;32044;52.386;13.278;2023-11-18T07:26:37;21.30;;;12.10;;
46322;SDS011;32044;52.386;13.278;2023-11-18T07:29:05;20.60;;;12.60;;
46322;SDS011;32044;52.386;13.278;2023-11-18T07:31:34;20.13;;;11.50;;
46322;SDS011;32044;52.386;13.278;2023-11-18T07:34:04;22.52;;;12.15;;
46322;SDS011;32044;52.386;13.278;2023-11-18T07:36:32;18.63;;;11.93;;
46322;SDS011;32044;52.386;13.278;2023-11-18T07:39:00;21.40;;;11.90;;
46322;SDS011;32044;52.386;13.278;2023-11-18T07:41:30;20.33;;;11.65;;
46322;SDS011;32044;52.386;13.278;2023-11-18T07:44:00;22.30;;;11.73;;
46322;SDS011;32044;52.386;13.278;2023-11-18T07:46:29;18.02;;;11.65;;
46322;SDS011;32044;52.386;13.278;2023-11-18T07:48:58;16.73;;;10.75;;
46322;SDS011;32044;52.386;13.278;2023-11-18T07:51:30;19.08;;;11.45;;
46322;SDS011;32044;52.386;13.278;2023-11-18T07:53:59;15.73;;;10.88;;
46322;SDS011;32044;52.386;13.278;2023-11-18T07:56:27;15.73;;;10.48;;
46322;SDS011;32044;52.386;13.278;2023-11-18T07:58:55;19.63;;;11.23;;
46322;SDS011;32044;52.386;13.278;2023-11-18T08:01:23;18.25;;;10.38;;
46322;SDS011;32044;52.386;13.278;2023-11-18T08:03:53;16.73;;;10.75;;
46322;SDS011;32044;52.386;13.278;2023-11-18T08:06:21;17.55;;;10.85;;
46322;SDS011;32044;52.386;13.278;2023-11-18T08:08:54;16.58;;;10.15;;
46322;SDS011;32044;52.386;13.278;2023-11-18T08:11:24;13.95;;;9.57;;
46322;SDS011;32044;52.386;13.278;2023-11-18T08:13:51;17.08;;;11.07;;
46322;SDS011;32044;52.386;13.278;2023-11-18T08:16:21;14.60;;;9.35;;
46322;SDS011;32044;52.386;13.278;2023-11-18T08:18:51;13.65;;;8.00;;
46322;SDS011;32044;52.386;13.278;2023-11-18T08:21:19;15.73;;;10.85;;
46322;SDS011;32044;52.386;13.278;2023-11-18T08:23:48;17.33;;;10.77;;
46322;SDS011;32044;52.386;13.278;2023-11-18T08:26:20;14.23;;;10.10;;
46322;SDS011;32044;52.386;13.278;2023-11-18T08:28:49;16.52;;;11.00;;
46322;SDS011;32044;52.386;13.278;2023-11-18T08:31:18;15.85;;;9.30;;
46322;SDS011;32044;52.386;13.278;2023-11-18T08:33:46;17.38;;;10.90;;
46322;SDS011;32044;52.386;13.278;2023-11-18T08:36:15;14.77;;;9.30;;
46322;SDS011;32044;52.386;13.278;2023-11-18T08:38:44;14.48;;;9.85;;
46322;SDS011;32044;52.386;13.278;2023-11-18T08:41:13;15.07;;;9.52;;
46322;SDS011;32044;52.386;13.278;2023-11-18T08:43:45;14.40;;;9.77;;
46322;SDS011;32044;52.386;13.278;2023-11-18T08:46:15;15.98;;;9.20;;
46322;SDS011;32044;52.386;13.278;2023-11-18T08:48:44;21.10;;;10.25;;
46322;SDS011;32044;52.386;13.278;2023-11-18T08:51:11;17.33;;;10.15;;
46322;SDS011;32044;52.386;13.278;2023-11-18T08:53:43;17.90;;;10.40;;
46322;SDS011;32044;52.386;13.278;2023-11-18T08:56:14;17.52;;;10.60;;
46322;SDS011;32044;52.386;13.278;2023-11-18T08:58:45;18.25;;;10.02;;
46322;SDS011;32044;52.386;13.278;2023-11-18T09:01:16;16.67;;;10.95;;
46322;SDS011;32044;52.386;13.278;2023-11-18T09:03:43;14.25;;;8.88;;
46322;SDS011;32044;52.386;13.278;2023-11-18T09:06:15;15.10;;;10.10;;
46322;SDS011;32044;52.386;13.278;2023-11-18T09:08:46;17.40;;;10.73;;
46322;SDS011;32044;52.386;13.278;2023-11-18T09:11:20;17.02;;;10.48;;
46322;SDS011;32044;52.386;13.278;2023-11-18T09:13:50;16.48;;;10.65;;
46322;SDS011;32044;52.386;13.278;2023-11-18T09:16:21;22.90;;;12.43;;
46322;SDS011;32044;52.386;13.278;2023-11-18T09:18:49;16.95;;;10.93;;
46322;SDS011;32044;52.386;13.278;2023-11-18T09:21:17;19.25;;;12.07;;
46322;SDS011;32044;52.386;13.278;2023-11-18T09:23:50;17.10;;;11.32;;
46322;SDS011;32044;52.386;13.278;2023-11-18T09:26:18;17.45;;;11.27;;
46322;SDS011;32044;52.386;13.278;2023-11-18T09:28:48;16.08;;;10.10;;
46322;SDS011;32044;52.386;13.278;2023-11-18T09:31:18;15.52;;;10.40;;
46322;SDS011;32044;52.386;13.278;2023-11-18T09:33:49;16.42;;;10.23;;
46322;SDS011;32044;52.386;13.278;2023-11-18T09:36:20;17.33;;;10.77;;
46322;SDS011;32044;52.386;13.278;2023-11-18T09:38:49;13.70;;;9.85;;
46322;SDS011;32044;52.386;13.278;2023-11-18T09:41:19;14.13;;;9.32;;
46322;SDS011;32044;52.386;13.278;2023-11-18T09:43:52;15.88;;;10.23;;
46322;SDS011;32044;52.386;13.278;2023-11-18T09:46:25;16.80;;;9.88;;
46322;SDS011;32044;52.386;13.278;2023-11-18T09:49:02;19.67;;;11.70;;
46322;SDS011;32044;52.386;13.278;2023-11-18T09:51:43;17.65;;;11.65;;
46322;SDS011;32044;52.386;13.278;2023-11-18T09:54:16;19.95;;;10.85;;
46322;SDS011;32044;52.386;13.278;2023-11-18T09:56:51;18.70;;;11.70;;
46322;SDS011;32044;52.386;13.278;2023-11-18T09:59:25;19.33;;;11.85;;
46322;SDS011;32044;52.386;13.278;2023-11-18T10:02:02;17.17;;;10.77;;
46322;SDS011;32044;52.386;13.278;2023-11-18T10:04:31;13.38;;;7.78;;
46322;SDS011;32044;52.386;13.278;2023-11-18T10:07:01;17.73;;;10.80;;
46322;SDS011;32044;52.386;13.278;2023-11-18T10:09:29;14.40;;;9.35;;
46322;SDS011;32044;52.386;13.278;2023-11-18T10:12:04;21.40;;;11.95;;
46322;SDS011;32044;52.386;13.278;2023-11-18T10:14:33;23.10;;;13.82;;
46322;SDS011;32044;52.386;13.278;2023-11-18T10:17:06;19.90;;;11.82;;
46322;SDS011;32044;52.386;13.278;2023-11-18T10:19:49;26.27;;;14.80;;
46322;SDS011;32044;52.386;13.278;2023-11-18T10:22:21;22.90;;;13.10;;
46322;SDS011;32044;52.386;13.278;2023-11-18T10:24:54;27.83;;;14.90;;
46322;SDS011;32044;52.386;13.278;2023-11-18T10:27:25;24.63;;;14.07;;
46322;SDS011;32044;52.386;13.278;2023-11-18T10:29:55;22.52;;;13.60;;
46322;SDS011;32044;52.386;13.278;2023-11-18T10:32:25;29.48;;;15.60;;
46322;SDS011;32044;52.386;13.278;2023-11-18T10:34:55;25.73;;;12.60;;
46322;SDS011;32044;52.386;13.278;2023-11-18T10:37:28;28.38;;;15.43;;
46322;SDS011;32044;52.386;13.278;2023-11-18T10:39:58;29.13;;;17.02;;
46322;SDS011;32044;52.386;13.278;2023-11-18T10:42:32;28.90;;;15.65;;
46322;SDS011;32044;52.386;13.278;2023-11-18T10:45:00;28.35;;;15.60;;
46322;SDS011;32044;52.386;13.278;2023-11-18T10:47:33;32.17;;;16.92;;
46322;SDS011;32044;52.386;13.278;2023-11-18T10:50:02;28.08;;;15.48;;
46322;SDS011;32044;52.386;13.278;2023-11-18T10:52:31;26.48;;;14.60;;
46322;SDS011;32044;52.386;13.278;2023-11-18T10:55:01;27.45;;;15.02;;
46322;SDS011;32044;52.386;13.278;2023-11-18T10:57:39;29.23;;;15.63;;
46322;SDS011;32044;52.386;13.278;2023-11-18T11:00:09;28.15;;;15.68;;
46322;SDS011;32044;52.386;13.278;2023-11-18T11:02:43;23.88;;;14.52;;
46322;SDS011;32044;52.386;13.278;2023-11-18T11:05:11;27.30;;;15.50;;
46322;SDS011;32044;52.386;13.278;2023-11-18T11:07:48;25.90;;;14.30;;
46322;SDS011;32044;52.386;13.278;2023-11-18T11:10:18;28.08;;;16.08;;
46322;SDS011;32044;52.386;13.278;2023-11-18T11:12:52;23.73;;;14.05;;
46322;SDS011;32044;52.386;13.278;2023-11-18T11:15:29;26.30;;;14.32;;
46322;SDS011;32044;52.386;13.278;2023-11-18T11:18:19;27.08;;;14.60;;
46322;SDS011;32044;52.386;13.278;2023-11-18T11:20:57;23.88;;;14.63;;
46322;SDS011;32044;52.386;13.278;2023-11-18T11:23:31;24.30;;;14.57;;
46322;SDS011;32044;52.386;13.278;2023-11-18T11:26:13;27.50;;;15.13;;
46322;SDS011;32044;52.386;13.278;2023-11-18T11:28:49;24.92;;;14.52;;
46322;SDS011;32044;52.386;13.278;2023-11-18T11:31:23;26.13;;;14.05;;
46322;SDS011;32044;52.386;13.278;2023-11-18T11:33:58;25.45;;;15.13;;
46322;SDS011;32044;52.386;13.278;2023-11-18T11:36:35;25.77;;;13.68;;
46322;SDS011;32044;52.386;13.278;2023-11-18T11:39:08;26.05;;;15.20;;
46322;SDS011;32044;52.386;13.278;2023-11-18T11:41:46;21.55;;;12.07;;
46322;SDS011;32044;52.386;13.278;2023-11-18T11:44:18;21.33;;;12.95;;
46322;SDS011;32044;52.386;13.278;2023-11-18T11:46:55;24.83;;;14.38;;
46322;SDS011;32044;52.386;13.278;2023-11-18T11:49:31;22.52;;;12.70;;
46322;SDS011;32044;52.386;13.278;2023-11-18T11:52:04;18.73;;;12.45;;
46322;SDS011;32044;52.386;13.278;2023-11-18T11:54:42;22.23;;;13.07;;
46322;SDS011;32044;52.386;13.278;2023-11-18T11:57:16;20.45;;;12.65;;
46322;SDS011;32044;52.386;13.278;2023-11-18T11:59:56;19.80;;;11.55;;
46322;SDS011;32044;52.386;13.278;2023-11-18T12:02:27;18.00;;;11.27;;
46322;SDS011;32044;52.386;13.278;2023-11-18T12:05:00;18.77;;;11.15;;
46322;SDS011;32044;52.386;13.278;2023-11-18T12:07:33;15.05;;;9.90;;
46322;SDS011;32044;52.386;13.278;2023-11-18T12:12:40;17.90;;;11.02;;
46322;SDS011;32044;52.386;13.278;2023-11-18T12:15:08;18.27;;;11.25;;
46322;SDS011;32044;52.386;13.278;2023-11-18T12:20:50;19.83;;;11.77;;
46322;SDS011;32044;52.386;13.278;2023-11-18T12:23:21;19.88;;;12.00;;
46322;SDS011;32044;52.386;13.278;2023-11-18T12:25:51;20.60;;;12.82;;
46322;SDS011;32044;52.386;13.278;2023-11-18T12:28:24;19.92;;;11.35;;
46322;SDS011;32044;52.386;13.278;2023-11-18T12:30:54;17.23;;;10.82;;
46322;SDS011;32044;52.386;13.278;2023-11-18T12:33:59;18.38;;;11.10;;
46322;SDS011;32044;52.386;13.278;2023-11-18T12:36:44;15.50;;;9.50;;
46322;SDS011;32044;52.386;13.278;2023-11-18T12:39:31;15.57;;;10.00;;
46322;SDS011;32044;52.386;13.278;2023-11-18T12:42:41;18.80;;;12.98;;
46322;SDS011;32044;52.386;13.278;2023-11-18T12:45:50;20.63;;;12.55;;
46322;SDS011;32044;52.386;13.278;2023-11-18T12:48:43;17.42;;;10.27;;
46322;SDS011;32044;52.386;13.278;2023-11-18T12:51:13;16.15;;;10.90;;
46322;SDS011;32044;52.386;13.278;2023-11-18T12:53:51;17.27;;;10.95;;
46322;SDS011;32044;52.386;13.278;2023-11-18T12:56:20;20.00;;;12.00;;
46322;SDS011;32044;52.386;13.278;2023-11-18T12:58:55;22.02;;;13.35;;
46322;SDS011;32044;52.386;13.278;2023-11-18T13:01:23;19.92;;;12.15;;
46322;SDS011;32044;52.386;13.278;2023-11-18T13:03:54;16.43;;;9.57;;
46322;SDS011;32044;52.386;13.278;2023-11-18T13:06:22;18.40;;;11.10;;
46322;SDS011;32044;52.386;13.278;2023-11-18T13:08:56;19.02;;;10.95;;
46322;SDS011;32044;52.386;13.278;2023-11-18T13:11:25;16.05;;;10.23;;
46322;SDS011;32044;52.386;13.278;2023-11-18T13:13:53;16.17;;;11.02;;
46322;SDS011;32044;52.386;13.278;2023-11-18T13:16:21;16.98;;;9.85;;
46322;SDS011;32044;52.386;13.278;2023-11-18T13:18:49;22.02;;;11.43;;
46322;SDS011;32044;52.386;13.278;2023-11-18T13:21:18;20.08;;;11.85;;
46322;SDS011;32044;52.386;13.278;2023-11-18T13:23:58;19.65;;;10.93;;
46322;SDS011;32044;52.386;13.278;2023-11-18T13:26:26;19.50;;;10.63;;
46322;SDS011;32044;52.386;13.278;2023-11-18T13:28:54;20.27;;;11.10;;
46322;SDS011;32044;52.386;13.278;2023-11-18T13:31:22;16.83;;;10.10;;
46322;SDS011;32044;52.386;13.278;2023-11-18T13:33:52;14.93;;;9.77;;
46322;SDS011;32044;52.386;13.278;2023-11-18T13:36:20;17.25;;;11.30;;
46322;SDS011;32044;52.386;13.278;2023-11-18T13:38:48;19.77;;;10.38;;
46322;SDS011;32044;52.386;13.278;2023-11-18T13:41:31;18.13;;;12.02;;
46322;SDS011;32044;52.386;13.278;2023-11-18T13:44:05;19.42;;;11.70;;
46322;SDS011;32044;52.386;13.278;2023-11-18T13:46:34;18.38;;;11.30;;
46322;SDS011;32044;52.386;13.278;2023-11-18T13:49:06;16.15;;;9.35;;
46322;SDS011;32044;52.386;13.278;2023-11-18T13:51:34;22.90;;;15.23;;
46322;SDS011;32044;52.386;13.278;2023-11-18T13:54:04;22.48;;;14.70;;
46322;SDS011;32044;52.386;13.278;2023-11-18T13:56:36;16.75;;;10.65;;
46322;SDS011;32044;52.386;13.278;2023-11-18T13:59:04;12.15;;;7.18;;
46322;SDS011;32044;52.386;13.278;2023-11-18T14:01:32;15.68;;;10.20;;
46322;SDS011;32044;52.386;13.278;2023-11-18T14:04:00;14.50;;;9.52;;
46322;SDS011;32044;52.386;13.278;2023-11-18T14:06:31;15.85;;;9.88;;
46322;SDS011;32044;52.386;13.278;2023-11-18T14:08:59;14.30;;;9.68;;
46322;SDS011;32044;52.386;13.278;2023-11-18T14:11:31;14.98;;;9.70;;
46322;SDS011;32044;52.386;13.278;2023-11-18T14:14:03;15.10;;;10.27;;
46322;SDS011;32044;52.386;13.278;2023-11-18T14:16:35;14.43;;;9.77;;
46322;SDS011;32044;52.386;13.278;2023-11-18T14:19:06;11.88;;;7.50;;
46322;SDS011;32044;52.386;13.278;2023-11-18T14:21:35;74.65;;;39.65;;
46322;SDS011;32044;52.386;13.278;2023-11-18T14:24:03;179.80;;;74.53;;
46322;SDS011;32044;52.386;13.278;2023-11-18T14:26:31;96.75;;;48.50;;
46322;SDS011;32044;52.386;13.278;2023-11-18T14:28:59;28.85;;;17.83;;
46322;SDS011;32044;52.386;13.278;2023-11-18T14:31:30;17.13;;;11.30;;
46322;SDS011;32044;52.386;13.278;2023-11-18T14:33:58;16.15;;;10.98;;
46322;SDS011;32044;52.386;13.278;2023-11-18T14:36:26;17.63;;;10.98;;
46322;SDS011;32044;52.386;13.278;2023-11-18T14:38:58;23.10;;;12.93;;
46322;SDS011;32044;52.386;13.278;2023-11-18T14:41:26;18.50;;;11.73;;